sensor_id;sensor_type;location;lat;lon;timestamp;P1;durP1;ratioP1;P2;durP2;ratioP2
4313;SDS011;2170;48.794;9.182;2024-02-21T00:01:17;7.60;;;5.40;;
4313;SDS011;2170;48.794;9.182;2024-02-21T00:03:45;5.20;;;4.80;;
4313;SDS011;2170;48.794;9.182;2024-02-21T00:06:12;10.33;;;5.60;;
4313;SDS011;2170;48.794;9.182;2024-02-21T00:08:44;7.80;;;5.10;;
4313;SDS011;2170;48.794;9.182;2024-02-21T00:11:18;6.87;;;5.40;;
4313;SDS011;2170;48.794;9.182;2024-02-21T00:13:47;8.03;;;5.90;;
4313;SDS011;2170;48.794;9.182;2024-02-21T00:16:15;12.67;;;5.30;;
4313;SDS011;2170;48.794;9.182;2024-02-21T00:18:52;9.17;;;5.40;;
4313;SDS011;2170;48.794;9.182;2024-02-21T00:21:29;5.07;;;4.20;;
4313;SDS011;2170;48.794;9.182;2024-02-21T00:23:57;8.93;;;5.00;;
4313;SDS011;2170;48.794;9.182;2024-02-21T00:26:30;7.63;;;5.00;;
4313;SDS011;2170;48.794;9.182;2024-02-21T00:29:03;8.67;;;4.23;;
4313;SDS011;2170;48.794;9.182;2024-02-21T00:31:40;7.77;;;4.50;;
4313;SDS011;2170;48.794;9.182;2024-02-21T00:34:11;8.73;;;5.50;;
4313;SDS011;2170;48.794;9.182;2024-02-21T00:36:38;8.83;;;5.13;;
4313;SDS011;2170;48.794;9.182;2024-02-21T00:39:06;8.00;;;4.30;;
4313;SDS011;2170;48.794;9.182;2024-02-21T00:41:34;8.07;;;4.60;;
4313;SDS011;2170;48.794;9.182;2024-02-21T00:44:08;7.67;;;5.03;;
4313;SDS011;2170;48.794;9.182;2024-02-21T00:46:38;8.23;;;5.40;;
4313;SDS011;2170;48.794;9.182;2024-02-21T00:49:09;6.60;;;5.17;;
4313;SDS011;2170;48.794;9.182;2024-02-21T00:51:39;8.50;;;4.87;;
4313;SDS011;2170;48.794;9.182;2024-02-21T00:54:11;11.30;;;5.07;;
4313;SDS011;2170;48.794;9.182;2024-02-21T00:56:38;9.10;;;5.33;;
4313;SDS011;2170;48.794;9.182;2024-02-21T00:59:05;9.20;;;5.80;;
4313;SDS011;2170;48.794;9.182;2024-02-21T01:01:31;8.00;;;4.87;;
4313;SDS011;2170;48.794;9.182;2024-02-21T01:04:00;7.20;;;4.90;;
4313;SDS011;2170;48.794;9.182;2024-02-21T01:06:27;9.27;;;4.70;;
4313;SDS011;2170;48.794;9.182;2024-02-21T01:08:53;10.03;;;5.10;;
4313;SDS011;2170;48.794;9.182;2024-02-21T01:11:20;8.80;;;5.30;;
4313;SDS011;2170;48.794;9.182;2024-02-21T01:13:48;6.90;;;4.83;;
4313;SDS011;2170;48.794;9.182;2024-02-21T01:16:17;7.70;;;4.47;;
4313;SDS011;2170;48.794;9.182;2024-02-21T01:18:49;12.33;;;5.30;;
4313;SDS011;2170;48.794;9.182;2024-02-21T01:21:21;7.37;;;4.80;;
4313;SDS011;2170;48.794;9.182;2024-02-21T01:23:50;7.37;;;5.10;;
4313;SDS011;2170;48.794;9.182;2024-02-21T01:26:17;9.77;;;5.40;;
4313;SDS011;2170;48.794;9.182;2024-02-21T01:28:47;6.83;;;4.60;;
4313;SDS011;2170;48.794;9.182;2024-02-21T01:31:14;10.03;;;6.27;;
4313;SDS011;2170;48.794;9.182;2024-02-21T01:33:44;10.07;;;5.23;;
4313;SDS011;2170;48.794;9.182;2024-02-21T01:36:11;9.00;;;4.77;;
4313;SDS011;2170;48.794;9.182;2024-02-21T01:38:47;8.57;;;4.90;;
4313;SDS011;2170;48.794;9.182;2024-02-21T01:41:17;9.47;;;4.77;;
4313;SDS011;2170;48.794;9.182;2024-02-21T01:43:45;6.80;;;4.50;;
4313;SDS011;2170;48.794;9.182;2024-02-21T01:46:13;9.00;;;5.20;;
4313;SDS011;2170;48.794;9.182;2024-02-21T01:48:42;5.87;;;4.90;;
4313;SDS011;2170;48.794;9.182;2024-02-21T01:51:12;6.10;;;4.63;;
4313;SDS011;2170;48.794;9.182;2024-02-21T01:53:42;10.30;;;4.80;;
4313;SDS011;2170;48.794;9.182;2024-02-21T01:56:11;7.60;;;4.63;;
4313;SDS011;2170;48.794;9.182;2024-02-21T01:58:40;6.53;;;4.47;;
4313;SDS011;2170;48.794;9.182;2024-02-21T02:01:08;7.80;;;4.23;;
4313;SDS011;2170;48.794;9.182;2024-02-21T02:03:36;6.37;;;4.37;;
4313;SDS011;2170;48.794;9.182;2024-02-21T02:06:06;6.93;;;4.50;;
4313;SDS011;2170;48.794;9.182;2024-02-21T02:08:33;4.63;;;4.00;;
4313;SDS011;2170;48.794;9.182;2024-02-21T02:11:00;9.23;;;5.40;;
4313;SDS011;2170;48.794;9.182;2024-02-21T02:13:29;7.83;;;4.90;;
4313;SDS011;2170;48.794;9.182;2024-02-21T02:15:56;8.70;;;4.60;;
4313;SDS011;2170;48.794;9.182;2024-02-21T02:18:24;8.10;;;4.53;;
4313;SDS011;2170;48.794;9.182;2024-02-21T02:20:56;8.40;;;4.80;;
4313;SDS011;2170;48.794;9.182;2024-02-21T02:23:26;5.37;;;4.07;;
4313;SDS011;2170;48.794;9.182;2024-02-21T02:25:58;10.00;;;4.13;;
4313;SDS011;2170;48.794;9.182;2024-02-21T02:28:26;5.10;;;4.30;;
4313;SDS011;2170;48.794;9.182;2024-02-21T02:30:56;5.40;;;3.60;;
4313;SDS011;2170;48.794;9.182;2024-02-21T02:33:27;7.97;;;4.10;;
4313;SDS011;2170;48.794;9.182;2024-02-21T02:35:57;8.77;;;5.17;;
4313;SDS011;2170;48.794;9.182;2024-02-21T02:38:26;7.60;;;4.10;;
4313;SDS011;2170;48.794;9.182;2024-02-21T02:40:53;8.17;;;4.10;;
4313;SDS011;2170;48.794;9.182;2024-02-21T02:43:20;9.43;;;4.30;;
4313;SDS011;2170;48.794;9.182;2024-02-21T02:45:47;5.90;;;4.37;;
4313;SDS011;2170;48.794;9.182;2024-02-21T02:48:19;9.17;;;4.57;;
4313;SDS011;2170;48.794;9.182;2024-02-21T02:50:46;11.33;;;4.53;;
4313;SDS011;2170;48.794;9.182;2024-02-21T02:53:16;7.83;;;4.67;;
4313;SDS011;2170;48.794;9.182;2024-02-21T02:55:52;7.90;;;4.57;;
4313;SDS011;2170;48.794;9.182;2024-02-21T02:58:19;10.70;;;5.07;;
4313;SDS011;2170;48.794;9.182;2024-02-21T03:00:49;6.23;;;4.90;;
4313;SDS011;2170;48.794;9.182;2024-02-21T03:03:16;7.17;;;4.60;;
4313;SDS011;2170;48.794;9.182;2024-02-21T03:05:43;9.90;;;5.10;;
4313;SDS011;2170;48.794;9.182;2024-02-21T03:08:12;10.33;;;5.17;;
4313;SDS011;2170;48.794;9.182;2024-02-21T03:10:41;7.73;;;4.83;;
4313;SDS011;2170;48.794;9.182;2024-02-21T03:13:24;8.07;;;5.00;;
4313;SDS011;2170;48.794;9.182;2024-02-21T03:15:55;6.90;;;4.83;;
4313;SDS011;2170;48.794;9.182;2024-02-21T03:18:25;10.63;;;5.03;;
4313;SDS011;2170;48.794;9.182;2024-02-21T03:20:53;10.27;;;4.60;;
4313;SDS011;2170;48.794;9.182;2024-02-21T03:23:21;8.63;;;4.30;;
4313;SDS011;2170;48.794;9.182;2024-02-21T03:25:51;5.10;;;4.03;;
4313;SDS011;2170;48.794;9.182;2024-02-21T03:28:22;5.90;;;5.13;;
4313;SDS011;2170;48.794;9.182;2024-02-21T03:30:53;8.40;;;4.80;;
4313;SDS011;2170;48.794;9.182;2024-02-21T03:33:21;8.17;;;4.37;;
4313;SDS011;2170;48.794;9.182;2024-02-21T03:35:51;8.83;;;4.20;;
4313;SDS011;2170;48.794;9.182;2024-02-21T03:38:20;4.67;;;4.00;;
4313;SDS011;2170;48.794;9.182;2024-02-21T03:40:48;10.67;;;4.50;;
4313;SDS011;2170;48.794;9.182;2024-02-21T03:43:15;7.03;;;4.67;;
4313;SDS011;2170;48.794;9.182;2024-02-21T03:45:44;6.60;;;4.27;;
4313;SDS011;2170;48.794;9.182;2024-02-21T03:48:14;5.97;;;5.33;;
4313;SDS011;2170;48.794;9.182;2024-02-21T03:50:41;8.93;;;4.50;;
4313;SDS011;2170;48.794;9.182;2024-02-21T03:53:12;7.07;;;4.10;;
4313;SDS011;2170;48.794;9.182;2024-02-21T03:55:39;11.70;;;4.97;;
4313;SDS011;2170;48.794;9.182;2024-02-21T03:58:12;9.53;;;5.23;;
4313;SDS011;2170;48.794;9.182;2024-02-21T04:00:40;6.13;;;4.87;;
4313;SDS011;2170;48.794;9.182;2024-02-21T04:03:11;5.47;;;4.70;;
4313;SDS011;2170;48.794;9.182;2024-02-21T04:05:39;7.13;;;4.60;;
4313;SDS011;2170;48.794;9.182;2024-02-21T04:08:11;11.33;;;4.73;;
4313;SDS011;2170;48.794;9.182;2024-02-21T04:10:42;8.00;;;4.40;;
4313;SDS011;2170;48.794;9.182;2024-02-21T04:13:15;5.60;;;4.30;;
4313;SDS011;2170;48.794;9.182;2024-02-21T04:15:42;6.90;;;4.17;;
4313;SDS011;2170;48.794;9.182;2024-02-21T04:18:09;6.40;;;4.30;;
4313;SDS011;2170;48.794;9.182;2024-02-21T04:20:40;10.60;;;4.77;;
4313;SDS011;2170;48.794;9.182;2024-02-21T04:23:07;5.13;;;4.40;;
4313;SDS011;2170;48.794;9.182;2024-02-21T04:25:34;8.53;;;4.33;;
4313;SDS011;2170;48.794;9.182;2024-02-21T04:28:01;7.10;;;4.83;;
4313;SDS011;2170;48.794;9.182;2024-02-21T04:30:32;9.50;;;5.40;;
4313;SDS011;2170;48.794;9.182;2024-02-21T04:32:59;8.80;;;3.87;;
4313;SDS011;2170;48.794;9.182;2024-02-21T04:35:33;7.63;;;4.07;;
4313;SDS011;2170;48.794;9.182;2024-02-21T04:38:05;7.13;;;4.57;;
4313;SDS011;2170;48.794;9.182;2024-02-21T04:40:34;8.77;;;4.20;;
4313;SDS011;2170;48.794;9.182;2024-02-21T04:43:05;6.53;;;4.40;;
4313;SDS011;2170;48.794;9.182;2024-02-21T04:45:34;4.27;;;3.90;;
4313;SDS011;2170;48.794;9.182;2024-02-21T04:48:01;7.73;;;4.20;;
4313;SDS011;2170;48.794;9.182;2024-02-21T04:50:41;7.80;;;4.10;;
4313;SDS011;2170;48.794;9.182;2024-02-21T04:53:11;4.90;;;3.83;;
4313;SDS011;2170;48.794;9.182;2024-02-21T04:55:38;7.47;;;3.70;;
4313;SDS011;2170;48.794;9.182;2024-02-21T04:58:07;6.67;;;4.20;;
4313;SDS011;2170;48.794;9.182;2024-02-21T05:00:36;6.90;;;4.03;;
4313;SDS011;2170;48.794;9.182;2024-02-21T05:03:06;6.90;;;4.77;;
4313;SDS011;2170;48.794;9.182;2024-02-21T05:05:33;9.83;;;3.73;;
4313;SDS011;2170;48.794;9.182;2024-02-21T05:08:05;6.47;;;3.77;;
4313;SDS011;2170;48.794;9.182;2024-02-21T05:10:35;8.23;;;4.47;;
4313;SDS011;2170;48.794;9.182;2024-02-21T05:13:02;6.07;;;3.40;;
4313;SDS011;2170;48.794;9.182;2024-02-21T05:15:32;6.40;;;3.80;;
4313;SDS011;2170;48.794;9.182;2024-02-21T05:18:01;7.27;;;4.17;;
4313;SDS011;2170;48.794;9.182;2024-02-21T05:20:27;8.33;;;4.17;;
4313;SDS011;2170;48.794;9.182;2024-02-21T05:22:54;4.60;;;3.83;;
4313;SDS011;2170;48.794;9.182;2024-02-21T05:25:23;7.77;;;3.50;;
4313;SDS011;2170;48.794;9.182;2024-02-21T05:27:50;8.97;;;4.00;;
4313;SDS011;2170;48.794;9.182;2024-02-21T05:30:18;6.97;;;3.90;;
4313;SDS011;2170;48.794;9.182;2024-02-21T05:32:46;11.50;;;3.57;;
4313;SDS011;2170;48.794;9.182;2024-02-21T05:35:15;6.07;;;3.80;;
4313;SDS011;2170;48.794;9.182;2024-02-21T05:37:57;3.87;;;3.57;;
4313;SDS011;2170;48.794;9.182;2024-02-21T05:40:32;5.90;;;4.20;;
4313;SDS011;2170;48.794;9.182;2024-02-21T05:43:06;9.70;;;4.30;;
4313;SDS011;2170;48.794;9.182;2024-02-21T05:45:37;6.30;;;3.10;;
4313;SDS011;2170;48.794;9.182;2024-02-21T05:48:10;7.67;;;3.50;;
4313;SDS011;2170;48.794;9.182;2024-02-21T05:50:43;4.30;;;3.90;;
4313;SDS011;2170;48.794;9.182;2024-02-21T05:53:17;6.80;;;3.30;;
4313;SDS011;2170;48.794;9.182;2024-02-21T05:55:45;5.37;;;3.80;;
4313;SDS011;2170;48.794;9.182;2024-02-21T05:58:18;9.97;;;3.50;;
4313;SDS011;2170;48.794;9.182;2024-02-21T06:00:45;5.00;;;3.33;;
4313;SDS011;2170;48.794;9.182;2024-02-21T06:03:14;6.43;;;3.20;;
4313;SDS011;2170;48.794;9.182;2024-02-21T06:05:41;6.30;;;3.60;;
4313;SDS011;2170;48.794;9.182;2024-02-21T06:08:08;5.67;;;3.90;;
4313;SDS011;2170;48.794;9.182;2024-02-21T06:10:35;11.03;;;7.63;;
4313;SDS011;2170;48.794;9.182;2024-02-21T06:13:03;7.23;;;5.00;;
4313;SDS011;2170;48.794;9.182;2024-02-21T06:15:30;6.00;;;4.33;;
4313;SDS011;2170;48.794;9.182;2024-02-21T06:17:57;8.50;;;5.80;;
4313;SDS011;2170;48.794;9.182;2024-02-21T06:20:24;6.57;;;3.97;;
4313;SDS011;2170;48.794;9.182;2024-02-21T06:22:51;7.67;;;4.13;;
4313;SDS011;2170;48.794;9.182;2024-02-21T06:25:18;6.63;;;3.40;;
4313;SDS011;2170;48.794;9.182;2024-02-21T06:27:49;5.90;;;3.20;;
4313;SDS011;2170;48.794;9.182;2024-02-21T06:30:23;10.47;;;4.00;;
4313;SDS011;2170;48.794;9.182;2024-02-21T06:32:54;7.47;;;3.83;;
4313;SDS011;2170;48.794;9.182;2024-02-21T06:35:22;5.37;;;3.40;;
4313;SDS011;2170;48.794;9.182;2024-02-21T06:37:59;4.90;;;3.60;;
4313;SDS011;2170;48.794;9.182;2024-02-21T06:40:32;4.47;;;3.37;;
4313;SDS011;2170;48.794;9.182;2024-02-21T06:43:04;5.07;;;3.30;;
4313;SDS011;2170;48.794;9.182;2024-02-21T06:45:38;4.27;;;3.63;;
4313;SDS011;2170;48.794;9.182;2024-02-21T06:48:15;8.27;;;3.67;;
4313;SDS011;2170;48.794;9.182;2024-02-21T06:50:44;4.97;;;3.93;;
4313;SDS011;2170;48.794;9.182;2024-02-21T06:53:14;5.10;;;4.37;;
4313;SDS011;2170;48.794;9.182;2024-02-21T06:55:41;6.03;;;3.50;;
4313;SDS011;2170;48.794;9.182;2024-02-21T06:58:11;5.17;;;3.40;;
4313;SDS011;2170;48.794;9.182;2024-02-21T07:00:43;7.60;;;4.67;;
4313;SDS011;2170;48.794;9.182;2024-02-21T07:03:12;4.63;;;4.17;;
4313;SDS011;2170;48.794;9.182;2024-02-21T07:05:42;5.20;;;3.77;;
4313;SDS011;2170;48.794;9.182;2024-02-21T07:08:10;6.23;;;3.63;;
4313;SDS011;2170;48.794;9.182;2024-02-21T07:10:37;5.70;;;3.50;;
4313;SDS011;2170;48.794;9.182;2024-02-21T07:13:17;5.40;;;3.93;;
4313;SDS011;2170;48.794;9.182;2024-02-21T07:15:49;4.17;;;3.60;;
4313;SDS011;2170;48.794;9.182;2024-02-21T07:18:16;4.13;;;3.43;;
4313;SDS011;2170;48.794;9.182;2024-02-21T07:20:45;4.57;;;3.30;;
4313;SDS011;2170;48.794;9.182;2024-02-21T07:23:13;6.40;;;4.20;;
4313;SDS011;2170;48.794;9.182;2024-02-21T07:25:44;5.53;;;3.67;;
4313;SDS011;2170;48.794;9.182;2024-02-21T07:28:14;5.17;;;3.63;;
4313;SDS011;2170;48.794;9.182;2024-02-21T07:30:46;7.53;;;4.50;;
4313;SDS011;2170;48.794;9.182;2024-02-21T07:33:15;5.57;;;3.73;;
4313;SDS011;2170;48.794;9.182;2024-02-21T07:35:44;9.90;;;4.10;;
4313;SDS011;2170;48.794;9.182;2024-02-21T07:38:16;6.90;;;3.73;;
4313;SDS011;2170;48.794;9.182;2024-02-21T07:40:47;5.10;;;3.50;;
4313;SDS011;2170;48.794;9.182;2024-02-21T07:43:19;6.00;;;3.57;;
4313;SDS011;2170;48.794;9.182;2024-02-21T07:45:57;7.20;;;3.67;;
4313;SDS011;2170;48.794;9.182;2024-02-21T07:48:28;4.00;;;3.60;;
4313;SDS011;2170;48.794;9.182;2024-02-21T07:51:06;5.00;;;3.10;;
4313;SDS011;2170;48.794;9.182;2024-02-21T07:53:38;11.53;;;3.80;;
4313;SDS011;2170;48.794;9.182;2024-02-21T07:56:10;6.73;;;3.77;;
4313;SDS011;2170;48.794;9.182;2024-02-21T07:58:40;6.70;;;4.20;;
4313;SDS011;2170;48.794;9.182;2024-02-21T08:01:11;6.13;;;3.80;;
4313;SDS011;2170;48.794;9.182;2024-02-21T08:03:47;6.50;;;3.47;;
4313;SDS011;2170;48.794;9.182;2024-02-21T08:06:18;3.80;;;3.10;;
4313;SDS011;2170;48.794;9.182;2024-02-21T08:08:51;8.40;;;3.43;;
4313;SDS011;2170;48.794;9.182;2024-02-21T08:11:22;3.97;;;3.50;;
4313;SDS011;2170;48.794;9.182;2024-02-21T08:13:51;8.27;;;3.47;;
4313;SDS011;2170;48.794;9.182;2024-02-21T08:16:23;5.00;;;3.10;;
4313;SDS011;2170;48.794;9.182;2024-02-21T08:18:53;4.80;;;3.50;;
4313;SDS011;2170;48.794;9.182;2024-02-21T08:21:25;7.10;;;3.73;;
4313;SDS011;2170;48.794;9.182;2024-02-21T08:23:55;5.93;;;3.50;;
4313;SDS011;2170;48.794;9.182;2024-02-21T08:26:25;6.67;;;3.10;;
4313;SDS011;2170;48.794;9.182;2024-02-21T08:28:55;3.20;;;2.90;;
4313;SDS011;2170;48.794;9.182;2024-02-21T08:31:25;7.07;;;3.37;;
4313;SDS011;2170;48.794;9.182;2024-02-21T08:33:56;4.63;;;2.90;;
4313;SDS011;2170;48.794;9.182;2024-02-21T08:36:30;7.67;;;4.20;;
4313;SDS011;2170;48.794;9.182;2024-02-21T08:39:00;5.90;;;3.63;;
4313;SDS011;2170;48.794;9.182;2024-02-21T08:41:36;4.83;;;3.00;;
4313;SDS011;2170;48.794;9.182;2024-02-21T08:44:13;10.13;;;3.73;;
4313;SDS011;2170;48.794;9.182;2024-02-21T08:46:48;7.10;;;3.60;;
4313;SDS011;2170;48.794;9.182;2024-02-21T08:49:23;6.83;;;3.27;;
4313;SDS011;2170;48.794;9.182;2024-02-21T08:51:53;8.00;;;3.87;;
4313;SDS011;2170;48.794;9.182;2024-02-21T08:54:31;7.40;;;3.00;;
4313;SDS011;2170;48.794;9.182;2024-02-21T08:57:01;6.43;;;3.30;;
4313;SDS011;2170;48.794;9.182;2024-02-21T08:59:31;8.23;;;3.53;;
4313;SDS011;2170;48.794;9.182;2024-02-21T09:02:06;6.47;;;3.13;;
4313;SDS011;2170;48.794;9.182;2024-02-21T09:04:38;4.07;;;3.47;;
4313;SDS011;2170;48.794;9.182;2024-02-21T09:07:17;6.10;;;3.40;;
4313;SDS011;2170;48.794;9.182;2024-02-21T09:09:50;7.30;;;3.07;;
4313;SDS011;2170;48.794;9.182;2024-02-21T09:12:25;5.23;;;3.37;;
4313;SDS011;2170;48.794;9.182;2024-02-21T09:15:05;5.67;;;3.00;;
4313;SDS011;2170;48.794;9.182;2024-02-21T09:17:40;5.50;;;3.50;;
4313;SDS011;2170;48.794;9.182;2024-02-21T09:20:13;6.03;;;3.23;;
4313;SDS011;2170;48.794;9.182;2024-02-21T09:22:46;3.17;;;2.87;;
4313;SDS011;2170;48.794;9.182;2024-02-21T09:25:24;4.83;;;2.63;;
4313;SDS011;2170;48.794;9.182;2024-02-21T09:28:02;9.03;;;3.30;;
4313;SDS011;2170;48.794;9.182;2024-02-21T09:30:37;6.83;;;3.60;;
4313;SDS011;2170;48.794;9.182;2024-02-21T09:33:16;6.40;;;2.60;;
4313;SDS011;2170;48.794;9.182;2024-02-21T09:35:46;5.97;;;3.80;;
4313;SDS011;2170;48.794;9.182;2024-02-21T09:38:23;6.30;;;3.30;;
4313;SDS011;2170;48.794;9.182;2024-02-21T09:41:15;4.60;;;3.03;;
4313;SDS011;2170;48.794;9.182;2024-02-21T09:44:00;6.07;;;3.30;;
4313;SDS011;2170;48.794;9.182;2024-02-21T09:46:33;4.03;;;2.97;;
4313;SDS011;2170;48.794;9.182;2024-02-21T09:49:17;3.87;;;2.90;;
4313;SDS011;2170;48.794;9.182;2024-02-21T09:51:57;4.00;;;2.43;;
4313;SDS011;2170;48.794;9.182;2024-02-21T09:54:38;5.10;;;3.23;;
4313;SDS011;2170;48.794;9.182;2024-02-21T09:57:17;5.27;;;2.80;;
4313;SDS011;2170;48.794;9.182;2024-02-21T09:59:49;5.63;;;2.73;;
4313;SDS011;2170;48.794;9.182;2024-02-21T10:02:24;5.27;;;2.90;;
4313;SDS011;2170;48.794;9.182;2024-02-21T10:05:13;6.00;;;3.00;;
4313;SDS011;2170;48.794;9.182;2024-02-21T10:07:47;5.90;;;3.00;;
4313;SDS011;2170;48.794;9.182;2024-02-21T10:10:29;3.17;;;2.87;;
4313;SDS011;2170;48.794;9.182;2024-02-21T10:13:21;5.00;;;3.03;;
4313;SDS011;2170;48.794;9.182;2024-02-21T10:16:02;4.07;;;2.67;;
4313;SDS011;2170;48.794;9.182;2024-02-21T10:18:34;4.13;;;2.40;;
4313;SDS011;2170;48.794;9.182;2024-02-21T10:21:12;4.53;;;2.80;;
4313;SDS011;2170;48.794;9.182;2024-02-21T10:23:47;10.53;;;2.80;;
4313;SDS011;2170;48.794;9.182;2024-02-21T10:26:23;3.83;;;2.80;;
4313;SDS011;2170;48.794;9.182;2024-02-21T10:28:52;5.37;;;2.67;;
4313;SDS011;2170;48.794;9.182;2024-02-21T10:31:30;3.83;;;2.50;;
4313;SDS011;2170;48.794;9.182;2024-02-21T10:34:07;3.90;;;2.80;;
4313;SDS011;2170;48.794;9.182;2024-02-21T10:40:30;4.57;;;2.43;;
4313;SDS011;2170;48.794;9.182;2024-02-21T10:43:17;4.37;;;2.33;;
4313;SDS011;2170;48.794;9.182;2024-02-21T10:46:06;3.40;;;2.33;;
4313;SDS011;2170;48.794;9.182;2024-02-21T10:48:41;4.93;;;2.60;;
4313;SDS011;2170;48.794;9.182;2024-02-21T10:51:20;3.63;;;2.53;;
4313;SDS011;2170;48.794;9.182;2024-02-21T10:54:24;5.83;;;2.53;;
4313;SDS011;2170;48.794;9.182;2024-02-21T11:00:10;3.43;;;2.83;;
4313;SDS011;2170;48.794;9.182;2024-02-21T11:02:44;4.60;;;2.70;;
4313;SDS011;2170;48.794;9.182;2024-02-21T11:05:32;5.13;;;2.80;;
4313;SDS011;2170;48.794;9.182;2024-02-21T11:08:35;8.83;;;2.93;;
4313;SDS011;2170;48.794;9.182;2024-02-21T11:11:11;6.97;;;3.00;;
4313;SDS011;2170;48.794;9.182;2024-02-21T11:13:47;4.83;;;1.97;;
4313;SDS011;2170;48.794;9.182;2024-02-21T11:16:34;2.80;;;2.30;;
4313;SDS011;2170;48.794;9.182;2024-02-21T11:19:09;4.60;;;2.43;;
4313;SDS011;2170;48.794;9.182;2024-02-21T11:21:49;6.10;;;2.17;;
4313;SDS011;2170;48.794;9.182;2024-02-21T11:24:28;6.07;;;2.50;;
4313;SDS011;2170;48.794;9.182;2024-02-21T11:27:25;5.67;;;3.13;;
4313;SDS011;2170;48.794;9.182;2024-02-21T11:30:03;2.50;;;2.33;;
4313;SDS011;2170;48.794;9.182;2024-02-21T11:32:35;3.43;;;2.50;;
4313;SDS011;2170;48.794;9.182;2024-02-21T11:35:08;3.30;;;2.10;;
4313;SDS011;2170;48.794;9.182;2024-02-21T11:38:09;6.17;;;2.57;;
4313;SDS011;2170;48.794;9.182;2024-02-21T11:40:40;7.17;;;3.00;;
4313;SDS011;2170;48.794;9.182;2024-02-21T11:43:08;7.50;;;5.50;;
4313;SDS011;2170;48.794;9.182;2024-02-21T11:45:35;4.37;;;2.67;;
4313;SDS011;2170;48.794;9.182;2024-02-21T11:48:05;5.83;;;2.87;;
4313;SDS011;2170;48.794;9.182;2024-02-21T11:50:37;4.10;;;2.53;;
4313;SDS011;2170;48.794;9.182;2024-02-21T11:53:07;3.60;;;2.23;;
4313;SDS011;2170;48.794;9.182;2024-02-21T11:55:37;2.20;;;2.00;;
4313;SDS011;2170;48.794;9.182;2024-02-21T11:58:07;2.30;;;2.00;;
4313;SDS011;2170;48.794;9.182;2024-02-21T12:00:34;6.97;;;2.30;;
4313;SDS011;2170;48.794;9.182;2024-02-21T12:03:02;3.60;;;1.80;;
4313;SDS011;2170;48.794;9.182;2024-02-21T12:05:44;3.30;;;2.50;;
4313;SDS011;2170;48.794;9.182;2024-02-21T12:08:27;6.40;;;2.80;;
4313;SDS011;2170;48.794;9.182;2024-02-21T12:11:17;3.83;;;2.27;;
4313;SDS011;2170;48.794;9.182;2024-02-21T12:14:01;3.73;;;2.03;;
4313;SDS011;2170;48.794;9.182;2024-02-21T12:16:45;2.17;;;1.97;;
4313;SDS011;2170;48.794;9.182;2024-02-21T12:19:25;2.83;;;1.50;;
4313;SDS011;2170;48.794;9.182;2024-02-21T12:22:43;2.90;;;1.37;;
4313;SDS011;2170;48.794;9.182;2024-02-21T12:25:15;3.23;;;1.37;;
4313;SDS011;2170;48.794;9.182;2024-02-21T12:28:08;7.93;;;2.20;;
4313;SDS011;2170;48.794;9.182;2024-02-21T12:31:13;3.93;;;2.10;;
4313;SDS011;2170;48.794;9.182;2024-02-21T12:33:51;3.37;;;2.30;;
4313;SDS011;2170;48.794;9.182;2024-02-21T12:36:25;2.30;;;1.40;;
4313;SDS011;2170;48.794;9.182;2024-02-21T12:39:10;3.90;;;1.90;;
4313;SDS011;2170;48.794;9.182;2024-02-21T12:44:41;3.00;;;1.87;;
4313;SDS011;2170;48.794;9.182;2024-02-21T12:47:28;2.80;;;2.00;;
4313;SDS011;2170;48.794;9.182;2024-02-21T12:50:18;2.57;;;2.00;;
4313;SDS011;2170;48.794;9.182;2024-02-21T12:53:08;6.40;;;1.70;;
4313;SDS011;2170;48.794;9.182;2024-02-21T12:55:53;4.83;;;1.93;;
4313;SDS011;2170;48.794;9.182;2024-02-21T12:58:53;2.60;;;1.57;;
4313;SDS011;2170;48.794;9.182;2024-02-21T13:01:31;2.17;;;1.70;;
4313;SDS011;2170;48.794;9.182;2024-02-21T13:04:13;3.43;;;1.60;;
4313;SDS011;2170;48.794;9.182;2024-02-21T13:06:45;3.20;;;1.73;;
4313;SDS011;2170;48.794;9.182;2024-02-21T13:12:46;2.57;;;1.93;;
4313;SDS011;2170;48.794;9.182;2024-02-21T13:15:28;2.50;;;2.17;;
4313;SDS011;2170;48.794;9.182;2024-02-21T13:18:13;3.23;;;2.30;;
4313;SDS011;2170;48.794;9.182;2024-02-21T13:20:48;6.63;;;2.00;;
4313;SDS011;2170;48.794;9.182;2024-02-21T13:23:18;2.90;;;1.60;;
4313;SDS011;2170;48.794;9.182;2024-02-21T13:25:51;3.20;;;1.70;;
4313;SDS011;2170;48.794;9.182;2024-02-21T13:28:18;1.87;;;1.77;;
4313;SDS011;2170;48.794;9.182;2024-02-21T13:30:45;3.03;;;1.90;;
4313;SDS011;2170;48.794;9.182;2024-02-21T13:33:12;2.67;;;1.57;;
4313;SDS011;2170;48.794;9.182;2024-02-21T13:35:39;2.30;;;1.40;;
4313;SDS011;2170;48.794;9.182;2024-02-21T13:38:07;2.60;;;2.00;;
4313;SDS011;2170;48.794;9.182;2024-02-21T13:40:35;3.47;;;1.50;;
4313;SDS011;2170;48.794;9.182;2024-02-21T13:43:03;4.60;;;2.03;;
4313;SDS011;2170;48.794;9.182;2024-02-21T13:45:30;3.57;;;1.83;;
4313;SDS011;2170;48.794;9.182;2024-02-21T13:47:58;2.27;;;1.60;;
4313;SDS011;2170;48.794;9.182;2024-02-21T13:50:27;2.17;;;1.70;;
4313;SDS011;2170;48.794;9.182;2024-02-21T13:53:29;2.97;;;2.03;;
4313;SDS011;2170;48.794;9.182;2024-02-21T13:59:51;1.50;;;1.30;;
4313;SDS011;2170;48.794;9.182;2024-02-21T14:02:31;2.73;;;1.93;;
4313;SDS011;2170;48.794;9.182;2024-02-21T14:05:12;1.40;;;1.20;;
4313;SDS011;2170;48.794;9.182;2024-02-21T14:10:40;2.30;;;1.53;;
4313;SDS011;2170;48.794;9.182;2024-02-21T14:16:30;5.07;;;2.03;;
4313;SDS011;2170;48.794;9.182;2024-02-21T14:18:59;1.77;;;1.57;;
4313;SDS011;2170;48.794;9.182;2024-02-21T14:21:33;3.17;;;1.90;;
4313;SDS011;2170;48.794;9.182;2024-02-21T14:24:13;1.87;;;1.67;;
4313;SDS011;2170;48.794;9.182;2024-02-21T14:26:45;3.80;;;1.70;;
4313;SDS011;2170;48.794;9.182;2024-02-21T14:29:13;1.97;;;1.77;;
4313;SDS011;2170;48.794;9.182;2024-02-21T14:31:51;3.53;;;1.97;;
4313;SDS011;2170;48.794;9.182;2024-02-21T14:34:22;1.93;;;1.70;;
4313;SDS011;2170;48.794;9.182;2024-02-21T14:36:52;5.07;;;2.00;;
4313;SDS011;2170;48.794;9.182;2024-02-21T14:39:20;3.10;;;2.20;;
4313;SDS011;2170;48.794;9.182;2024-02-21T14:41:48;4.40;;;1.90;;
4313;SDS011;2170;48.794;9.182;2024-02-21T14:44:16;5.00;;;2.00;;
4313;SDS011;2170;48.794;9.182;2024-02-21T14:46:42;3.20;;;1.90;;
4313;SDS011;2170;48.794;9.182;2024-02-21T14:49:11;2.93;;;2.00;;
4313;SDS011;2170;48.794;9.182;2024-02-21T14:51:40;1.73;;;1.63;;
4313;SDS011;2170;48.794;9.182;2024-02-21T14:54:30;2.23;;;1.50;;
4313;SDS011;2170;48.794;9.182;2024-02-21T14:57:30;4.93;;;1.60;;
4313;SDS011;2170;48.794;9.182;2024-02-21T15:04:03;2.00;;;1.53;;
4313;SDS011;2170;48.794;9.182;2024-02-21T15:07:25;1.50;;;1.40;;
4313;SDS011;2170;48.794;9.182;2024-02-21T15:10:47;2.13;;;1.40;;
4313;SDS011;2170;48.794;9.182;2024-02-21T15:13:28;2.10;;;1.50;;
4313;SDS011;2170;48.794;9.182;2024-02-21T15:16:26;3.40;;;1.20;;
4313;SDS011;2170;48.794;9.182;2024-02-21T15:21:22;1.33;;;1.23;;
4313;SDS011;2170;48.794;9.182;2024-02-21T15:29:31;3.40;;;2.20;;
4313;SDS011;2170;48.794;9.182;2024-02-21T15:32:37;3.17;;;1.80;;
4313;SDS011;2170;48.794;9.182;2024-02-21T15:42:45;1.70;;;1.60;;
4313;SDS011;2170;48.794;9.182;2024-02-21T15:49:41;2.87;;;2.10;;
4313;SDS011;2170;48.794;9.182;2024-02-21T15:52:51;3.63;;;1.90;;
4313;SDS011;2170;48.794;9.182;2024-02-21T15:55:58;2.43;;;2.00;;
4313;SDS011;2170;48.794;9.182;2024-02-21T15:59:13;3.87;;;1.83;;
4313;SDS011;2170;48.794;9.182;2024-02-21T16:18:35;2.77;;;2.20;;
4313;SDS011;2170;48.794;9.182;2024-02-21T16:25:21;6.33;;;5.20;;
4313;SDS011;2170;48.794;9.182;2024-02-21T16:41:54;3.50;;;2.30;;
4313;SDS011;2170;48.794;9.182;2024-02-21T16:44:54;3.10;;;2.00;;
4313;SDS011;2170;48.794;9.182;2024-02-21T16:51:28;7.47;;;6.77;;
4313;SDS011;2170;48.794;9.182;2024-02-21T17:01:50;4.10;;;2.97;;
4313;SDS011;2170;48.794;9.182;2024-02-21T17:11:20;4.73;;;4.33;;
4313;SDS011;2170;48.794;9.182;2024-02-21T17:17:47;3.43;;;3.13;;
4313;SDS011;2170;48.794;9.182;2024-02-21T17:21:18;3.37;;;3.07;;
4313;SDS011;2170;48.794;9.182;2024-02-21T17:31:01;4.50;;;3.37;;
4313;SDS011;2170;48.794;9.182;2024-02-21T17:34:18;6.30;;;3.60;;
4313;SDS011;2170;48.794;9.182;2024-02-21T17:37:19;4.80;;;3.63;;
4313;SDS011;2170;48.794;9.182;2024-02-21T17:43:40;5.47;;;3.50;;
4313;SDS011;2170;48.794;9.182;2024-02-21T17:46:39;4.33;;;3.27;;
4313;SDS011;2170;48.794;9.182;2024-02-21T17:49:50;4.40;;;3.13;;
4313;SDS011;2170;48.794;9.182;2024-02-21T17:52:46;4.47;;;3.20;;
4313;SDS011;2170;48.794;9.182;2024-02-21T17:55:45;6.23;;;3.50;;